sensor_id;sensor_type;location;lat;lon;timestamp;P1;durP1;ratioP1;P2;durP2;ratioP2
21769;SDS011;11046;49.558;8.674;2023-03-01T00:01:00;22.87;;;11.33;;
21769;SDS011;11046;49.558;8.674;2023-03-01T00:04:02;25.07;;;12.40;;
21769;SDS011;11046;49.558;8.674;2023-03-01T00:07:03;26.07;;;12.40;;
21769;SDS011;11046;49.558;8.674;2023-03-01T00:10:03;26.70;;;12.30;;
21769;SDS011;11046;49.558;8.674;2023-03-01T00:13:04;26.83;;;12.30;;
21769;SDS011;11046;49.558;8.674;2023-03-01T00:16:06;28.80;;;12.40;;
21769;SDS011;11046;49.558;8.674;2023-03-01T00:19:15;31.67;;;13.67;;
21769;SDS011;11046;49.558;8.674;2023-03-01T00:22:18;25.83;;;12.23;;
21769;SDS011;11046;49.558;8.674;2023-03-01T00:25:18;24.80;;;11.83;;
21769;SDS011;11046;49.558;8.674;2023-03-01T00:28:19;29.30;;;13.30;;
21769;SDS011;11046;49.558;8.674;2023-03-01T00:31:21;32.07;;;13.37;;
21769;SDS011;11046;49.558;8.674;2023-03-01T00:34:23;29.83;;;13.00;;
21769;SDS011;11046;49.558;8.674;2023-03-01T00:37:24;28.27;;;12.93;;
21769;SDS011;11046;49.558;8.674;2023-03-01T00:40:25;27.90;;;12.80;;
21769;SDS011;11046;49.558;8.674;2023-03-01T00:43:26;27.27;;;12.90;;
21769;SDS011;11046;49.558;8.674;2023-03-01T00:46:27;29.70;;;13.03;;
21769;SDS011;11046;49.558;8.674;2023-03-01T00:49:30;26.83;;;12.83;;
21769;SDS011;11046;49.558;8.674;2023-03-01T00:52:30;31.30;;;13.67;;
21769;SDS011;11046;49.558;8.674;2023-03-01T00:55:31;25.13;;;12.30;;
21769;SDS011;11046;49.558;8.674;2023-03-01T00:58:32;26.50;;;12.93;;
21769;SDS011;11046;49.558;8.674;2023-03-01T01:01:33;28.07;;;13.03;;
21769;SDS011;11046;49.558;8.674;2023-03-01T01:04:33;29.40;;;13.13;;
21769;SDS011;11046;49.558;8.674;2023-03-01T01:07:34;30.97;;;13.00;;
21769;SDS011;11046;49.558;8.674;2023-03-01T01:10:35;30.00;;;13.73;;
21769;SDS011;11046;49.558;8.674;2023-03-01T01:13:35;28.90;;;13.30;;
21769;SDS011;11046;49.558;8.674;2023-03-01T01:16:37;27.47;;;13.23;;
21769;SDS011;11046;49.558;8.674;2023-03-01T01:19:37;29.37;;;13.17;;
21769;SDS011;11046;49.558;8.674;2023-03-01T01:22:38;33.53;;;13.27;;
21769;SDS011;11046;49.558;8.674;2023-03-01T01:25:38;29.87;;;13.07;;
21769;SDS011;11046;49.558;8.674;2023-03-01T01:28:39;33.47;;;14.03;;
21769;SDS011;11046;49.558;8.674;2023-03-01T01:31:41;30.07;;;13.30;;
21769;SDS011;11046;49.558;8.674;2023-03-01T01:34:42;30.13;;;13.83;;
21769;SDS011;11046;49.558;8.674;2023-03-01T01:37:42;27.63;;;12.27;;
21769;SDS011;11046;49.558;8.674;2023-03-01T01:40:46;29.63;;;13.20;;
21769;SDS011;11046;49.558;8.674;2023-03-01T01:43:50;28.63;;;12.73;;
21769;SDS011;11046;49.558;8.674;2023-03-01T01:47:18;28.50;;;13.93;;
21769;SDS011;11046;49.558;8.674;2023-03-01T01:50:22;32.83;;;13.90;;
21769;SDS011;11046;49.558;8.674;2023-03-01T01:53:23;31.80;;;14.67;;
21769;SDS011;11046;49.558;8.674;2023-03-01T01:56:24;30.57;;;14.03;;
21769;SDS011;11046;49.558;8.674;2023-03-01T01:59:26;32.57;;;14.80;;
21769;SDS011;11046;49.558;8.674;2023-03-01T02:02:31;32.10;;;15.07;;
21769;SDS011;11046;49.558;8.674;2023-03-01T02:05:41;34.93;;;14.77;;
21769;SDS011;11046;49.558;8.674;2023-03-01T02:08:59;31.67;;;14.00;;
21769;SDS011;11046;49.558;8.674;2023-03-01T02:12:02;30.67;;;14.20;;
21769;SDS011;11046;49.558;8.674;2023-03-01T02:15:05;31.60;;;12.70;;
21769;SDS011;11046;49.558;8.674;2023-03-01T02:18:06;30.03;;;13.00;;
21769;SDS011;11046;49.558;8.674;2023-03-01T02:21:30;27.17;;;12.87;;
21769;SDS011;11046;49.558;8.674;2023-03-01T02:24:40;31.40;;;13.17;;
21769;SDS011;11046;49.558;8.674;2023-03-01T02:27:58;28.43;;;12.97;;
21769;SDS011;11046;49.558;8.674;2023-03-01T02:31:17;29.13;;;12.97;;
21769;SDS011;11046;49.558;8.674;2023-03-01T02:34:38;31.60;;;14.10;;
21769;SDS011;11046;49.558;8.674;2023-03-01T02:37:39;30.80;;;13.30;;
21769;SDS011;11046;49.558;8.674;2023-03-01T02:40:41;29.80;;;13.27;;
21769;SDS011;11046;49.558;8.674;2023-03-01T02:43:42;29.67;;;13.03;;
21769;SDS011;11046;49.558;8.674;2023-03-01T02:46:47;28.27;;;13.70;;
21769;SDS011;11046;49.558;8.674;2023-03-01T02:49:52;34.97;;;16.10;;
21769;SDS011;11046;49.558;8.674;2023-03-01T02:52:56;30.90;;;13.77;;
21769;SDS011;11046;49.558;8.674;2023-03-01T02:56:01;29.47;;;13.20;;
21769;SDS011;11046;49.558;8.674;2023-03-01T02:59:03;29.57;;;13.33;;
21769;SDS011;11046;49.558;8.674;2023-03-01T03:02:04;30.77;;;13.33;;
21769;SDS011;11046;49.558;8.674;2023-03-01T03:05:16;33.50;;;14.30;;
21769;SDS011;11046;49.558;8.674;2023-03-01T03:08:19;32.00;;;13.57;;
21769;SDS011;11046;49.558;8.674;2023-03-01T03:11:24;32.37;;;14.57;;
21769;SDS011;11046;49.558;8.674;2023-03-01T03:14:25;29.57;;;13.80;;
21769;SDS011;11046;49.558;8.674;2023-03-01T03:17:26;29.33;;;13.00;;
21769;SDS011;11046;49.558;8.674;2023-03-01T03:20:27;31.10;;;13.67;;
21769;SDS011;11046;49.558;8.674;2023-03-01T03:23:29;31.40;;;13.73;;
21769;SDS011;11046;49.558;8.674;2023-03-01T03:26:30;34.27;;;14.93;;
21769;SDS011;11046;49.558;8.674;2023-03-01T03:29:31;42.63;;;14.33;;
21769;SDS011;11046;49.558;8.674;2023-03-01T03:32:31;31.67;;;14.27;;
21769;SDS011;11046;49.558;8.674;2023-03-01T03:35:33;30.33;;;13.50;;
21769;SDS011;11046;49.558;8.674;2023-03-01T03:38:38;38.07;;;14.67;;
21769;SDS011;11046;49.558;8.674;2023-03-01T03:41:39;37.13;;;14.23;;
21769;SDS011;11046;49.558;8.674;2023-03-01T03:44:40;35.43;;;14.20;;
21769;SDS011;11046;49.558;8.674;2023-03-01T03:47:41;32.33;;;14.27;;
21769;SDS011;11046;49.558;8.674;2023-03-01T03:50:41;37.47;;;14.17;;
21769;SDS011;11046;49.558;8.674;2023-03-01T03:53:48;33.47;;;14.13;;
21769;SDS011;11046;49.558;8.674;2023-03-01T03:56:48;38.47;;;14.17;;
21769;SDS011;11046;49.558;8.674;2023-03-01T03:59:49;35.87;;;15.50;;
21769;SDS011;11046;49.558;8.674;2023-03-01T04:02:50;34.10;;;15.23;;
21769;SDS011;11046;49.558;8.674;2023-03-01T04:05:51;34.07;;;14.97;;
21769;SDS011;11046;49.558;8.674;2023-03-01T04:08:52;35.97;;;14.37;;
21769;SDS011;11046;49.558;8.674;2023-03-01T04:11:58;36.03;;;14.40;;
21769;SDS011;11046;49.558;8.674;2023-03-01T04:14:58;33.63;;;13.80;;
21769;SDS011;11046;49.558;8.674;2023-03-01T04:17:59;33.13;;;14.27;;
21769;SDS011;11046;49.558;8.674;2023-03-01T04:21:00;36.80;;;15.10;;
21769;SDS011;11046;49.558;8.674;2023-03-01T04:24:01;32.93;;;13.90;;
21769;SDS011;11046;49.558;8.674;2023-03-01T04:27:03;31.87;;;14.40;;
21769;SDS011;11046;49.558;8.674;2023-03-01T04:30:04;33.07;;;14.63;;
21769;SDS011;11046;49.558;8.674;2023-03-01T04:33:06;34.47;;;14.53;;
21769;SDS011;11046;49.558;8.674;2023-03-01T04:36:08;34.27;;;14.00;;
21769;SDS011;11046;49.558;8.674;2023-03-01T04:39:09;36.73;;;15.70;;
21769;SDS011;11046;49.558;8.674;2023-03-01T04:42:13;33.43;;;13.37;;
21769;SDS011;11046;49.558;8.674;2023-03-01T04:45:14;35.67;;;15.20;;
21769;SDS011;11046;49.558;8.674;2023-03-01T04:48:15;36.47;;;15.20;;
21769;SDS011;11046;49.558;8.674;2023-03-01T04:51:16;35.40;;;15.27;;
21769;SDS011;11046;49.558;8.674;2023-03-01T04:54:18;40.73;;;15.13;;
21769;SDS011;11046;49.558;8.674;2023-03-01T04:57:18;36.93;;;16.17;;
21769;SDS011;11046;49.558;8.674;2023-03-01T05:00:20;36.47;;;15.30;;
21769;SDS011;11046;49.558;8.674;2023-03-01T05:03:21;35.30;;;15.00;;
21769;SDS011;11046;49.558;8.674;2023-03-01T05:06:22;35.30;;;16.10;;
21769;SDS011;11046;49.558;8.674;2023-03-01T05:09:23;34.87;;;15.87;;
21769;SDS011;11046;49.558;8.674;2023-03-01T05:12:23;36.43;;;15.90;;
21769;SDS011;11046;49.558;8.674;2023-03-01T05:15:25;39.07;;;16.83;;
21769;SDS011;11046;49.558;8.674;2023-03-01T05:18:27;39.73;;;15.87;;
21769;SDS011;11046;49.558;8.674;2023-03-01T05:21:30;41.60;;;16.00;;
21769;SDS011;11046;49.558;8.674;2023-03-01T05:24:31;36.63;;;16.00;;
21769;SDS011;11046;49.558;8.674;2023-03-01T05:27:33;40.57;;;16.47;;
21769;SDS011;11046;49.558;8.674;2023-03-01T05:30:35;38.43;;;16.23;;
21769;SDS011;11046;49.558;8.674;2023-03-01T05:33:36;36.13;;;15.83;;
21769;SDS011;11046;49.558;8.674;2023-03-01T05:36:38;36.73;;;15.83;;
21769;SDS011;11046;49.558;8.674;2023-03-01T05:39:39;43.57;;;17.60;;
21769;SDS011;11046;49.558;8.674;2023-03-01T05:42:39;40.70;;;16.40;;
21769;SDS011;11046;49.558;8.674;2023-03-01T05:45:40;43.53;;;17.30;;
21769;SDS011;11046;49.558;8.674;2023-03-01T05:48:42;41.37;;;16.60;;
21769;SDS011;11046;49.558;8.674;2023-03-01T05:51:47;38.70;;;15.37;;
21769;SDS011;11046;49.558;8.674;2023-03-01T05:54:49;40.77;;;16.80;;
21769;SDS011;11046;49.558;8.674;2023-03-01T05:57:49;42.37;;;16.43;;
21769;SDS011;11046;49.558;8.674;2023-03-01T06:00:51;40.00;;;16.50;;
21769;SDS011;11046;49.558;8.674;2023-03-01T06:03:51;41.70;;;17.43;;
21769;SDS011;11046;49.558;8.674;2023-03-01T06:06:52;43.67;;;17.47;;
21769;SDS011;11046;49.558;8.674;2023-03-01T06:09:53;45.50;;;17.03;;
21769;SDS011;11046;49.558;8.674;2023-03-01T06:12:53;47.00;;;18.63;;
21769;SDS011;11046;49.558;8.674;2023-03-01T06:15:54;48.47;;;20.70;;
21769;SDS011;11046;49.558;8.674;2023-03-01T06:18:55;44.67;;;21.10;;
21769;SDS011;11046;49.558;8.674;2023-03-01T06:21:55;47.70;;;20.00;;
21769;SDS011;11046;49.558;8.674;2023-03-01T06:24:56;40.80;;;18.13;;
21769;SDS011;11046;49.558;8.674;2023-03-01T06:27:57;47.20;;;20.83;;
21769;SDS011;11046;49.558;8.674;2023-03-01T06:31:02;41.47;;;17.30;;
21769;SDS011;11046;49.558;8.674;2023-03-01T06:34:08;42.63;;;17.33;;
21769;SDS011;11046;49.558;8.674;2023-03-01T06:37:13;42.33;;;17.57;;
21769;SDS011;11046;49.558;8.674;2023-03-01T06:40:14;40.60;;;17.00;;
21769;SDS011;11046;49.558;8.674;2023-03-01T06:43:16;39.23;;;17.00;;
21769;SDS011;11046;49.558;8.674;2023-03-01T06:46:16;38.90;;;17.23;;
21769;SDS011;11046;49.558;8.674;2023-03-01T06:49:25;42.03;;;17.63;;
21769;SDS011;11046;49.558;8.674;2023-03-01T06:52:26;39.20;;;16.50;;
21769;SDS011;11046;49.558;8.674;2023-03-01T06:55:26;36.97;;;16.40;;
21769;SDS011;11046;49.558;8.674;2023-03-01T06:58:27;37.60;;;16.50;;
21769;SDS011;11046;49.558;8.674;2023-03-01T07:01:28;36.43;;;16.47;;
21769;SDS011;11046;49.558;8.674;2023-03-01T07:04:29;39.37;;;17.77;;
21769;SDS011;11046;49.558;8.674;2023-03-01T07:07:30;42.27;;;17.60;;
21769;SDS011;11046;49.558;8.674;2023-03-01T07:10:31;41.57;;;17.57;;
21769;SDS011;11046;49.558;8.674;2023-03-01T07:13:31;37.23;;;17.07;;
21769;SDS011;11046;49.558;8.674;2023-03-01T07:16:32;43.33;;;17.20;;
21769;SDS011;11046;49.558;8.674;2023-03-01T07:19:33;39.10;;;16.97;;
21769;SDS011;11046;49.558;8.674;2023-03-01T07:22:33;38.37;;;16.70;;
21769;SDS011;11046;49.558;8.674;2023-03-01T07:25:34;38.33;;;16.73;;
21769;SDS011;11046;49.558;8.674;2023-03-01T07:28:34;38.60;;;16.03;;
21769;SDS011;11046;49.558;8.674;2023-03-01T07:31:39;40.57;;;17.27;;
21769;SDS011;11046;49.558;8.674;2023-03-01T07:34:39;40.07;;;16.53;;
21769;SDS011;11046;49.558;8.674;2023-03-01T07:37:40;34.60;;;15.77;;
21769;SDS011;11046;49.558;8.674;2023-03-01T07:40:40;34.73;;;16.83;;
21769;SDS011;11046;49.558;8.674;2023-03-01T07:43:41;35.60;;;15.87;;
21769;SDS011;11046;49.558;8.674;2023-03-01T07:46:42;35.87;;;15.57;;
21769;SDS011;11046;49.558;8.674;2023-03-01T07:49:42;39.60;;;16.13;;
21769;SDS011;11046;49.558;8.674;2023-03-01T07:52:46;32.87;;;16.10;;
21769;SDS011;11046;49.558;8.674;2023-03-01T07:55:48;36.07;;;16.87;;
21769;SDS011;11046;49.558;8.674;2023-03-01T07:58:48;34.13;;;15.80;;
21769;SDS011;11046;49.558;8.674;2023-03-01T08:01:49;32.27;;;15.50;;
21769;SDS011;11046;49.558;8.674;2023-03-01T08:04:50;36.27;;;16.27;;
21769;SDS011;11046;49.558;8.674;2023-03-01T08:07:50;30.30;;;15.23;;
21769;SDS011;11046;49.558;8.674;2023-03-01T08:10:51;36.87;;;16.40;;
21769;SDS011;11046;49.558;8.674;2023-03-01T08:13:51;34.10;;;16.47;;
21769;SDS011;11046;49.558;8.674;2023-03-01T08:16:52;38.73;;;17.00;;
21769;SDS011;11046;49.558;8.674;2023-03-01T08:19:52;32.20;;;15.43;;
21769;SDS011;11046;49.558;8.674;2023-03-01T08:22:53;31.33;;;15.80;;
21769;SDS011;11046;49.558;8.674;2023-03-01T08:25:53;32.83;;;16.17;;
21769;SDS011;11046;49.558;8.674;2023-03-01T08:28:54;37.87;;;16.77;;
21769;SDS011;11046;49.558;8.674;2023-03-01T08:31:55;33.37;;;16.80;;
21769;SDS011;11046;49.558;8.674;2023-03-01T08:34:55;32.57;;;15.97;;
21769;SDS011;11046;49.558;8.674;2023-03-01T08:37:56;35.43;;;16.17;;
21769;SDS011;11046;49.558;8.674;2023-03-01T08:40:58;34.40;;;19.03;;
21769;SDS011;11046;49.558;8.674;2023-03-01T08:44:00;35.53;;;17.20;;
21769;SDS011;11046;49.558;8.674;2023-03-01T08:47:00;40.17;;;17.60;;
21769;SDS011;11046;49.558;8.674;2023-03-01T08:50:02;35.57;;;17.37;;
21769;SDS011;11046;49.558;8.674;2023-03-01T08:53:03;33.87;;;16.10;;
21769;SDS011;11046;49.558;8.674;2023-03-01T08:56:04;33.10;;;16.97;;
21769;SDS011;11046;49.558;8.674;2023-03-01T08:59:05;33.57;;;17.07;;
21769;SDS011;11046;49.558;8.674;2023-03-01T09:02:12;34.03;;;17.37;;
21769;SDS011;11046;49.558;8.674;2023-03-01T09:05:16;33.80;;;17.90;;
21769;SDS011;11046;49.558;8.674;2023-03-01T09:08:16;30.33;;;16.73;;
21769;SDS011;11046;49.558;8.674;2023-03-01T09:11:19;33.40;;;17.30;;
21769;SDS011;11046;49.558;8.674;2023-03-01T09:14:20;35.57;;;17.87;;
21769;SDS011;11046;49.558;8.674;2023-03-01T09:17:21;34.03;;;16.93;;
21769;SDS011;11046;49.558;8.674;2023-03-01T09:20:21;36.73;;;17.17;;
21769;SDS011;11046;49.558;8.674;2023-03-01T09:23:22;34.97;;;18.13;;
21769;SDS011;11046;49.558;8.674;2023-03-01T09:26:23;34.10;;;16.90;;
21769;SDS011;11046;49.558;8.674;2023-03-01T09:29:24;33.60;;;17.87;;
21769;SDS011;11046;49.558;8.674;2023-03-01T09:32:25;35.83;;;18.20;;
21769;SDS011;11046;49.558;8.674;2023-03-01T09:35:26;38.97;;;18.73;;
21769;SDS011;11046;49.558;8.674;2023-03-01T09:38:28;34.73;;;17.70;;
21769;SDS011;11046;49.558;8.674;2023-03-01T09:44:57;32.23;;;17.17;;
21769;SDS011;11046;49.558;8.674;2023-03-01T09:48:01;35.53;;;17.57;;
21769;SDS011;11046;49.558;8.674;2023-03-01T09:51:05;36.77;;;18.33;;
21769;SDS011;11046;49.558;8.674;2023-03-01T09:54:12;36.27;;;17.97;;
21769;SDS011;11046;49.558;8.674;2023-03-01T10:03:36;30.60;;;17.00;;
21769;SDS011;11046;49.558;8.674;2023-03-01T10:06:54;33.07;;;18.07;;
21769;SDS011;11046;49.558;8.674;2023-03-01T10:09:56;33.17;;;18.20;;
21769;SDS011;11046;49.558;8.674;2023-03-01T10:12:58;32.93;;;18.07;;
21769;SDS011;11046;49.558;8.674;2023-03-01T10:16:15;33.47;;;17.23;;
21769;SDS011;11046;49.558;8.674;2023-03-01T10:19:23;33.40;;;17.67;;
21769;SDS011;11046;49.558;8.674;2023-03-01T10:22:30;31.03;;;17.80;;
21769;SDS011;11046;49.558;8.674;2023-03-01T10:28:59;31.87;;;17.13;;
21769;SDS011;11046;49.558;8.674;2023-03-01T10:32:08;32.77;;;17.17;;
21769;SDS011;11046;49.558;8.674;2023-03-01T10:35:34;32.37;;;17.33;;
21769;SDS011;11046;49.558;8.674;2023-03-01T10:38:52;32.53;;;17.20;;
21769;SDS011;11046;49.558;8.674;2023-03-01T10:42:02;31.73;;;17.00;;
21769;SDS011;11046;49.558;8.674;2023-03-01T10:48:30;29.20;;;17.13;;
21769;SDS011;11046;49.558;8.674;2023-03-01T10:51:31;33.50;;;17.77;;
21769;SDS011;11046;49.558;8.674;2023-03-01T10:54:32;31.70;;;16.77;;
21769;SDS011;11046;49.558;8.674;2023-03-01T10:57:34;31.17;;;17.47;;
21769;SDS011;11046;49.558;8.674;2023-03-01T11:00:45;31.17;;;17.23;;
21769;SDS011;11046;49.558;8.674;2023-03-01T11:07:23;31.90;;;17.53;;
21769;SDS011;11046;49.558;8.674;2023-03-01T11:10:28;30.07;;;16.60;;
21769;SDS011;11046;49.558;8.674;2023-03-01T11:13:31;31.13;;;16.40;;
21769;SDS011;11046;49.558;8.674;2023-03-01T11:16:33;33.97;;;17.47;;
21769;SDS011;11046;49.558;8.674;2023-03-01T11:19:35;30.57;;;17.10;;
21769;SDS011;11046;49.558;8.674;2023-03-01T11:22:36;30.63;;;17.30;;
21769;SDS011;11046;49.558;8.674;2023-03-01T11:25:42;29.43;;;16.43;;
21769;SDS011;11046;49.558;8.674;2023-03-01T11:28:56;29.97;;;17.70;;
21769;SDS011;11046;49.558;8.674;2023-03-01T11:32:01;29.73;;;16.57;;
21769;SDS011;11046;49.558;8.674;2023-03-01T11:35:09;30.70;;;17.50;;
21769;SDS011;11046;49.558;8.674;2023-03-01T11:38:39;33.30;;;17.40;;
21769;SDS011;11046;49.558;8.674;2023-03-01T11:41:40;33.00;;;16.93;;
21769;SDS011;11046;49.558;8.674;2023-03-01T11:44:41;23.93;;;13.63;;
21769;SDS011;11046;49.558;8.674;2023-03-01T11:51:09;29.40;;;16.73;;
21769;SDS011;11046;49.558;8.674;2023-03-01T11:54:20;30.90;;;17.37;;
21769;SDS011;11046;49.558;8.674;2023-03-01T11:58:00;28.37;;;16.37;;
21769;SDS011;11046;49.558;8.674;2023-03-01T12:01:21;30.50;;;16.73;;
21769;SDS011;11046;49.558;8.674;2023-03-01T12:08:27;28.67;;;16.97;;
21769;SDS011;11046;49.558;8.674;2023-03-01T12:18:13;29.83;;;16.33;;
21769;SDS011;11046;49.558;8.674;2023-03-01T12:21:41;33.73;;;17.90;;
21769;SDS011;11046;49.558;8.674;2023-03-01T12:25:00;27.50;;;15.70;;
21769;SDS011;11046;49.558;8.674;2023-03-01T12:37:58;28.40;;;16.17;;
21769;SDS011;11046;49.558;8.674;2023-03-01T12:41:26;28.13;;;16.17;;
21769;SDS011;11046;49.558;8.674;2023-03-01T12:51:23;28.67;;;16.17;;
21769;SDS011;11046;49.558;8.674;2023-03-01T12:54:27;30.93;;;16.27;;
21769;SDS011;11046;49.558;8.674;2023-03-01T12:57:31;29.17;;;15.97;;
21769;SDS011;11046;49.558;8.674;2023-03-01T13:04:39;26.57;;;16.07;;
21769;SDS011;11046;49.558;8.674;2023-03-01T13:11:28;28.87;;;15.47;;
21769;SDS011;11046;49.558;8.674;2023-03-01T13:17:40;27.10;;;15.63;;
21769;SDS011;11046;49.558;8.674;2023-03-01T13:23:47;27.13;;;15.20;;
21769;SDS011;11046;49.558;8.674;2023-03-01T13:33:41;25.83;;;14.07;;
21769;SDS011;11046;49.558;8.674;2023-03-01T13:36:49;25.00;;;14.57;;
21769;SDS011;11046;49.558;8.674;2023-03-01T13:39:50;24.63;;;13.57;;
21769;SDS011;11046;49.558;8.674;2023-03-01T13:42:52;24.40;;;13.87;;
21769;SDS011;11046;49.558;8.674;2023-03-01T13:45:54;22.37;;;13.43;;
21769;SDS011;11046;49.558;8.674;2023-03-01T13:48:58;23.53;;;12.90;;
21769;SDS011;11046;49.558;8.674;2023-03-01T13:52:25;23.57;;;12.93;;
21769;SDS011;11046;49.558;8.674;2023-03-01T13:55:47;22.60;;;13.13;;
21769;SDS011;11046;49.558;8.674;2023-03-01T13:58:58;21.83;;;12.93;;
21769;SDS011;11046;49.558;8.674;2023-03-01T14:02:10;20.90;;;12.10;;
21769;SDS011;11046;49.558;8.674;2023-03-01T14:05:12;23.50;;;13.90;;
21769;SDS011;11046;49.558;8.674;2023-03-01T14:08:18;24.07;;;12.23;;
21769;SDS011;11046;49.558;8.674;2023-03-01T14:15:02;22.77;;;12.47;;
21769;SDS011;11046;49.558;8.674;2023-03-01T14:18:19;23.20;;;12.80;;
21769;SDS011;11046;49.558;8.674;2023-03-01T14:21:38;22.57;;;11.90;;
21769;SDS011;11046;49.558;8.674;2023-03-01T14:24:41;23.30;;;12.60;;
21769;SDS011;11046;49.558;8.674;2023-03-01T14:27:56;23.97;;;12.83;;
21769;SDS011;11046;49.558;8.674;2023-03-01T14:31:02;20.87;;;11.93;;
21769;SDS011;11046;49.558;8.674;2023-03-01T14:34:16;21.40;;;12.57;;
21769;SDS011;11046;49.558;8.674;2023-03-01T14:37:28;21.70;;;11.83;;
21769;SDS011;11046;49.558;8.674;2023-03-01T14:40:35;21.33;;;11.90;;
21769;SDS011;11046;49.558;8.674;2023-03-01T14:43:41;25.33;;;12.53;;
21769;SDS011;11046;49.558;8.674;2023-03-01T14:46:51;22.43;;;12.10;;
21769;SDS011;11046;49.558;8.674;2023-03-01T14:49:57;22.27;;;12.20;;
21769;SDS011;11046;49.558;8.674;2023-03-01T14:53:05;21.20;;;12.63;;
21769;SDS011;11046;49.558;8.674;2023-03-01T14:56:12;26.47;;;11.87;;
21769;SDS011;11046;49.558;8.674;2023-03-01T14:59:25;21.30;;;11.53;;
21769;SDS011;11046;49.558;8.674;2023-03-01T15:02:26;21.17;;;11.77;;
21769;SDS011;11046;49.558;8.674;2023-03-01T15:05:32;23.83;;;12.07;;
21769;SDS011;11046;49.558;8.674;2023-03-01T15:08:34;21.37;;;12.03;;
21769;SDS011;11046;49.558;8.674;2023-03-01T15:11:40;23.30;;;12.30;;
21769;SDS011;11046;49.558;8.674;2023-03-01T15:14:43;19.57;;;11.33;;
21769;SDS011;11046;49.558;8.674;2023-03-01T15:17:52;20.67;;;11.77;;
21769;SDS011;11046;49.558;8.674;2023-03-01T15:21:09;21.07;;;11.40;;
21769;SDS011;11046;49.558;8.674;2023-03-01T15:24:25;20.90;;;11.13;;
21769;SDS011;11046;49.558;8.674;2023-03-01T15:27:32;20.30;;;10.63;;
21769;SDS011;11046;49.558;8.674;2023-03-01T15:30:33;19.07;;;10.77;;
21769;SDS011;11046;49.558;8.674;2023-03-01T15:33:37;20.47;;;10.83;;
21769;SDS011;11046;49.558;8.674;2023-03-01T15:36:40;19.03;;;10.50;;
21769;SDS011;11046;49.558;8.674;2023-03-01T15:40:20;18.47;;;10.30;;
21769;SDS011;11046;49.558;8.674;2023-03-01T15:43:43;22.40;;;11.37;;
21769;SDS011;11046;49.558;8.674;2023-03-01T15:46:50;18.63;;;10.80;;
21769;SDS011;11046;49.558;8.674;2023-03-01T15:49:54;20.97;;;12.00;;
21769;SDS011;11046;49.558;8.674;2023-03-01T15:52:58;19.13;;;11.03;;
21769;SDS011;11046;49.558;8.674;2023-03-01T15:56:18;18.20;;;10.40;;
21769;SDS011;11046;49.558;8.674;2023-03-01T15:59:22;19.83;;;10.60;;
21769;SDS011;11046;49.558;8.674;2023-03-01T16:02:25;20.80;;;11.03;;
21769;SDS011;11046;49.558;8.674;2023-03-01T16:05:27;19.87;;;10.10;;
21769;SDS011;11046;49.558;8.674;2023-03-01T16:08:33;19.10;;;10.60;;
21769;SDS011;11046;49.558;8.674;2023-03-01T16:11:36;19.73;;;11.20;;
21769;SDS011;11046;49.558;8.674;2023-03-01T16:14:38;18.73;;;9.63;;
21769;SDS011;11046;49.558;8.674;2023-03-01T16:17:39;19.57;;;10.30;;
21769;SDS011;11046;49.558;8.674;2023-03-01T16:20:40;20.00;;;9.80;;
21769;SDS011;11046;49.558;8.674;2023-03-01T16:23:44;20.23;;;10.63;;
21769;SDS011;11046;49.558;8.674;2023-03-01T16:26:46;17.90;;;10.10;;
21769;SDS011;11046;49.558;8.674;2023-03-01T16:29:47;19.03;;;10.80;;
21769;SDS011;11046;49.558;8.674;2023-03-01T16:32:54;18.30;;;10.40;;
21769;SDS011;11046;49.558;8.674;2023-03-01T16:35:54;23.73;;;11.07;;
21769;SDS011;11046;49.558;8.674;2023-03-01T16:38:57;21.30;;;11.33;;
21769;SDS011;11046;49.558;8.674;2023-03-01T16:42:05;18.70;;;10.57;;
21769;SDS011;11046;49.558;8.674;2023-03-01T16:45:09;20.60;;;11.30;;
21769;SDS011;11046;49.558;8.674;2023-03-01T16:48:15;21.63;;;10.60;;
21769;SDS011;11046;49.558;8.674;2023-03-01T16:51:22;21.93;;;11.07;;
21769;SDS011;11046;49.558;8.674;2023-03-01T16:54:23;21.23;;;11.40;;
21769;SDS011;11046;49.558;8.674;2023-03-01T16:57:27;38.60;;;20.87;;
21769;SDS011;11046;49.558;8.674;2023-03-01T17:00:30;24.47;;;13.37;;
21769;SDS011;11046;49.558;8.674;2023-03-01T17:03:37;25.37;;;12.93;;
21769;SDS011;11046;49.558;8.674;2023-03-01T17:06:38;29.07;;;15.00;;
21769;SDS011;11046;49.558;8.674;2023-03-01T17:09:39;27.63;;;13.57;;
21769;SDS011;11046;49.558;8.674;2023-03-01T17:12:40;41.50;;;22.03;;
21769;SDS011;11046;49.558;8.674;2023-03-01T17:15:41;26.67;;;15.00;;
21769;SDS011;11046;49.558;8.674;2023-03-01T17:18:45;42.60;;;26.67;;
21769;SDS011;11046;49.558;8.674;2023-03-01T17:21:54;39.97;;;23.93;;
21769;SDS011;11046;49.558;8.674;2023-03-01T17:24:55;22.10;;;11.83;;
21769;SDS011;11046;49.558;8.674;2023-03-01T17:27:56;27.77;;;15.97;;
21769;SDS011;11046;49.558;8.674;2023-03-01T17:31:06;30.67;;;15.90;;
21769;SDS011;11046;49.558;8.674;2023-03-01T17:34:10;21.57;;;11.40;;
21769;SDS011;11046;49.558;8.674;2023-03-01T17:37:13;39.70;;;19.07;;
21769;SDS011;11046;49.558;8.674;2023-03-01T17:40:14;27.83;;;13.97;;
21769;SDS011;11046;49.558;8.674;2023-03-01T17:43:17;37.43;;;16.37;;
21769;SDS011;11046;49.558;8.674;2023-03-01T17:46:21;25.53;;;15.33;;
21769;SDS011;11046;49.558;8.674;2023-03-01T17:49:23;28.07;;;15.50;;
21769;SDS011;11046;49.558;8.674;2023-03-01T17:52:24;24.07;;;13.57;;
21769;SDS011;11046;49.558;8.674;2023-03-01T17:55:25;25.53;;;12.80;;
21769;SDS011;11046;49.558;8.674;2023-03-01T17:58:26;26.90;;;12.90;;
21769;SDS011;11046;49.558;8.674;2023-03-01T18:01:29;24.10;;;12.90;;
21769;SDS011;11046;49.558;8.674;2023-03-01T18:04:32;33.07;;;16.13;;
21769;SDS011;11046;49.558;8.674;2023-03-01T18:07:33;27.20;;;11.90;;
21769;SDS011;11046;49.558;8.674;2023-03-01T18:10:35;34.50;;;15.63;;
21769;SDS011;11046;49.558;8.674;2023-03-01T18:13:38;78.60;;;29.83;;
21769;SDS011;11046;49.558;8.674;2023-03-01T18:16:39;50.30;;;22.03;;
21769;SDS011;11046;49.558;8.674;2023-03-01T18:19:40;41.03;;;18.70;;
21769;SDS011;11046;49.558;8.674;2023-03-01T18:22:41;34.40;;;15.97;;
21769;SDS011;11046;49.558;8.674;2023-03-01T18:25:42;41.87;;;20.33;;
21769;SDS011;11046;49.558;8.674;2023-03-01T18:28:43;63.80;;;32.77;;
21769;SDS011;11046;49.558;8.674;2023-03-01T18:31:46;34.00;;;16.80;;
21769;SDS011;11046;49.558;8.674;2023-03-01T18:34:46;39.53;;;15.00;;
21769;SDS011;11046;49.558;8.674;2023-03-01T18:37:47;27.67;;;13.10;;
21769;SDS011;11046;49.558;8.674;2023-03-01T18:40:50;27.30;;;13.47;;
21769;SDS011;11046;49.558;8.674;2023-03-01T18:43:51;27.47;;;13.73;;
21769;SDS011;11046;49.558;8.674;2023-03-01T18:46:54;26.83;;;11.60;;
21769;SDS011;11046;49.558;8.674;2023-03-01T18:49:57;21.63;;;11.17;;
21769;SDS011;11046;49.558;8.674;2023-03-01T18:52:57;24.43;;;12.40;;
21769;SDS011;11046;49.558;8.674;2023-03-01T18:55:58;43.90;;;23.47;;
21769;SDS011;11046;49.558;8.674;2023-03-01T18:59:00;49.73;;;24.30;;
21769;SDS011;11046;49.558;8.674;2023-03-01T19:02:02;63.17;;;24.03;;
21769;SDS011;11046;49.558;8.674;2023-03-01T19:05:03;49.07;;;19.73;;
21769;SDS011;11046;49.558;8.674;2023-03-01T19:08:04;44.83;;;18.67;;
21769;SDS011;11046;49.558;8.674;2023-03-01T19:11:05;48.20;;;21.43;;